Time;durP1;ratioP1;P1;durP2;ratioP2;P2;SDS_P1;SDS_P2;PMS_P1;PMS_P2;Temp;Humidity;BMP_temperature;BMP_pressure;BME280_temperature;BME280_humidity;BME280_pressure;Samples;Min_cycle;Max_cycle;Signal;HPM_P1;HPM_P2
2022/05/04 00:00:17;;;;;;;4.50;2.20;;;8.20;99.90;;;;;;5122683;27;20187;-66
2022/05/04 00:02:43;;;;;;;6.33;2.47;;;8.10;99.90;;;;;;5117602;27;20425;-67
2022/05/04 00:05:09;;;;;;;12.00;3.10;;;8.10;99.90;;;;;;5119799;27;20202;-69
2022/05/04 00:07:35;;;;;;;3.43;2.30;;;8.10;99.90;;;;;;5125689;27;20272;-69
2022/05/04 00:10:00;;;;;;;3.27;1.60;;;8.00;99.90;;;;;;5125149;27;20506;-68
2022/05/04 00:12:26;;;;;;;6.80;2.27;;;8.00;99.90;;;;;;5111443;27;20194;-69
2022/05/04 00:14:52;;;;;;;3.87;2.27;;;8.00;99.90;;;;;;5120573;27;20199;-68
2022/05/04 00:17:18;;;;;;;4.87;2.23;;;7.90;99.90;;;;;;5124082;27;20435;-69
2022/05/04 00:19:44;;;;;;;4.13;2.40;;;7.90;99.90;;;;;;5113317;27;20209;-68
2022/05/04 00:22:10;;;;;;;3.83;2.30;;;7.80;99.90;;;;;;5118249;27;20197;-68
2022/05/04 00:24:35;;;;;;;4.10;2.20;;;7.80;99.90;;;;;;5123879;27;20272;-66
2022/05/04 00:27:01;;;;;;;4.87;2.80;;;7.80;99.90;;;;;;5120324;27;20206;-67
2022/05/04 00:29:26;;;;;;;4.30;2.40;;;7.70;99.90;;;;;;5122608;27;20793;-67
2022/05/04 00:31:52;;;;;;;4.90;2.67;;;7.70;99.90;;;;;;5118364;27;20202;-66
2022/05/04 00:34:18;;;;;;;5.53;3.20;;;7.70;99.90;;;;;;5121112;27;20255;-69
2022/05/04 00:36:43;;;;;;;3.90;2.20;;;7.60;99.90;;;;;;5117245;27;20191;-69
2022/05/04 00:39:09;;;;;;;4.70;3.00;;;7.60;99.90;;;;;;5122829;27;20195;-68
2022/05/04 00:41:34;;;;;;;4.17;2.33;;;7.60;99.90;;;;;;5077442;27;20196;-68
2022/05/04 00:44:00;;;;;;;6.20;2.77;;;7.50;99.90;;;;;;5122489;27;20211;-68
2022/05/04 00:46:26;;;;;;;6.23;2.87;;;7.50;99.90;;;;;;5116344;27;20191;-67
2022/05/04 00:48:52;;;;;;;3.93;2.30;;;7.50;99.90;;;;;;5121528;27;20260;-67
2022/05/04 00:51:18;;;;;;;6.07;3.10;;;7.40;99.90;;;;;;5114724;27;20191;-68
2022/05/04 00:53:44;;;;;;;6.00;3.00;;;7.40;99.90;;;;;;5120821;27;20605;-68
2022/05/04 00:56:11;;;;;;;3.90;2.33;;;7.40;99.90;;;;;;5114510;27;20425;-68
2022/05/04 00:58:57;;;;;;;5.60;2.87;;;7.40;99.90;;;;;;5119946;27;20515;-69
2022/05/04 01:01:30;;;;;;;4.47;2.73;;;7.40;99.90;;;;;;5116021;27;20433;-67
2022/05/04 01:03:57;;;;;;;5.73;3.00;;;7.40;99.90;;;;;;5092802;27;20437;-67
2022/05/04 01:06:23;;;;;;;4.20;2.67;;;7.50;99.90;;;;;;5120240;27;20441;-65
2022/05/04 01:08:50;;;;;;;7.17;2.97;;;7.40;99.90;;;;;;5121606;27;20497;-67
2022/05/04 01:11:17;;;;;;;6.40;3.10;;;7.50;99.90;;;;;;5114113;27;20430;-67
2022/05/04 01:13:43;;;;;;;3.70;2.23;;;7.40;99.90;;;;;;5109968;27;20529;-67
2022/05/04 01:16:09;;;;;;;4.60;2.60;;;7.40;99.90;;;;;;5123347;27;20574;-67
2022/05/04 01:18:34;;;;;;;4.20;2.50;;;7.40;99.90;;;;;;5119333;27;20191;-66
2022/05/04 01:21:02;;;;;;;7.17;3.53;;;7.40;99.90;;;;;;5123091;27;20187;-67
2022/05/04 01:23:28;;;;;;;5.43;2.97;;;7.40;99.90;;;;;;5118692;27;20340;-68
2022/05/04 01:25:54;;;;;;;4.83;2.83;;;7.30;99.90;;;;;;5122587;27;20416;-66
2022/05/04 01:28:20;;;;;;;6.33;3.47;;;7.30;99.90;;;;;;5117211;27;20219;-67
2022/05/04 01:30:45;;;;;;;6.03;3.70;;;7.30;99.90;;;;;;5122149;27;20274;-67
2022/05/04 01:33:11;;;;;;;6.20;3.47;;;7.30;99.90;;;;;;5116251;27;20428;-67
2022/05/04 01:35:37;;;;;;;5.47;3.47;;;7.30;99.90;;;;;;5120901;27;20241;-67
2022/05/04 01:38:03;;;;;;;7.10;2.97;;;7.30;99.90;;;;;;5115965;27;20643;-68
2022/05/04 01:40:29;;;;;;;4.17;2.30;;;7.30;99.90;;;;;;5118083;27;20187;-67
2022/05/04 01:42:54;;;;;;;5.53;3.60;;;7.20;99.90;;;;;;5114234;27;21015;-67
2022/05/04 01:45:20;;;;;;;3.43;2.13;;;7.30;99.90;;;;;;5113730;27;20897;-67
2022/05/04 01:47:50;;;;;;;6.33;3.10;;;7.30;99.90;;;;;;5112735;27;20230;-67
2022/05/04 01:50:17;;;;;;;7.80;3.80;;;7.30;99.90;;;;;;5083106;28;20292;-67
2022/05/04 01:52:42;;;;;;;6.60;4.20;;;7.30;99.90;;;;;;5117532;27;20420;-66
2022/05/04 01:55:08;;;;;;;7.53;3.67;;;7.30;99.90;;;;;;5124790;27;20536;-67
2022/05/04 01:57:34;;;;;;;7.97;4.27;;;7.40;99.90;;;;;;5123763;27;20195;-67
2022/05/04 02:00:00;;;;;;;8.77;3.00;;;7.30;99.90;;;;;;5125145;27;20447;-66
2022/05/04 02:02:29;;;;;;;4.90;2.93;;;7.30;99.90;;;;;;5114625;27;20243;-67
2022/05/04 02:04:54;;;;;;;5.53;2.93;;;7.30;99.90;;;;;;5093572;27;20906;-67
2022/05/04 02:07:20;;;;;;;8.00;3.10;;;7.40;99.90;;;;;;5118920;27;20465;-68
2022/05/04 02:09:46;;;;;;;6.57;2.70;;;7.40;99.90;;;;;;5122490;27;20273;-69
2022/05/04 02:12:12;;;;;;;6.10;2.80;;;7.40;99.90;;;;;;5117064;27;20186;-66
2022/05/04 02:14:38;;;;;;;4.10;2.30;;;7.40;99.90;;;;;;5122075;27;20335;-68
2022/05/04 02:17:05;;;;;;;4.73;2.97;;;7.50;99.90;;;;;;5116610;27;20422;-68
2022/05/04 02:19:30;;;;;;;10.07;3.13;;;7.50;99.90;;;;;;5090544;28;20433;-66
2022/05/04 02:21:56;;;;;;;3.10;2.30;;;7.50;99.90;;;;;;5110405;28;20498;-67
2022/05/04 02:24:22;;;;;;;5.83;3.30;;;7.60;99.90;;;;;;5112732;28;20236;-66
2022/05/04 02:26:48;;;;;;;5.57;3.50;;;7.60;99.90;;;;;;5112023;28;20191;-67
2022/05/04 02:29:13;;;;;;;4.40;2.60;;;7.60;99.90;;;;;;5080395;28;20212;-67
2022/05/04 02:31:39;;;;;;;6.03;3.00;;;7.70;99.90;;;;;;5111765;28;20219;-66
2022/05/04 02:34:04;;;;;;;6.77;2.87;;;7.60;99.90;;;;;;5116047;28;20587;-66
2022/05/04 02:39:14;;;;;;;5.63;2.73;;;7.60;99.90;;;;;;5125249;28;20208;-67
2022/05/04 02:41:39;;;;;;;8.23;3.63;;;7.60;99.90;;;;;;5110756;28;20892;-66
2022/05/04 02:44:05;;;;;;;5.00;2.83;;;7.70;99.90;;;;;;5119011;28;20271;-68
2022/05/04 02:46:31;;;;;;;5.63;3.30;;;7.70;99.90;;;;;;5124622;28;20593;-67
2022/05/04 02:48:58;;;;;;;5.90;3.30;;;7.70;99.90;;;;;;5124235;28;20222;-66
2022/05/04 02:51:23;;;;;;;5.37;3.20;;;7.70;99.90;;;;;;5123947;28;20567;-67
2022/05/04 02:53:49;;;;;;;6.50;4.07;;;7.80;99.90;;;;;;5124612;28;20551;-66
2022/05/04 02:56:15;;;;;;;6.10;3.60;;;7.80;99.90;;;;;;5122960;28;20191;-67
2022/05/04 02:58:45;;;;;;;4.40;3.27;;;7.90;99.90;;;;;;5124547;28;20199;-65
2022/05/04 03:04:07;;;;;;;6.00;4.13;;;8.00;99.90;;;;;;5117600;28;20440;-66
2022/05/04 03:06:40;;;;;;;6.43;3.70;;;8.00;99.90;;;;;;5111756;28;20422;-64
2022/05/04 03:09:07;;;;;;;6.20;3.20;;;8.00;99.90;;;;;;5113038;28;20469;-66
2022/05/04 03:14:33;;;;;;;4.83;2.73;;;8.10;99.90;;;;;;5034385;28;20444;-66
2022/05/04 03:16:59;;;;;;;7.30;3.77;;;8.20;99.90;;;;;;5077269;28;20434;-66
2022/05/04 03:19:25;;;;;;;4.60;2.70;;;8.20;99.90;;;;;;5123236;27;20685;-66
2022/05/04 03:21:52;;;;;;;5.50;3.10;;;8.20;99.90;;;;;;5117108;27;20183;-67
2022/05/04 03:24:18;;;;;;;5.80;3.33;;;8.30;99.90;;;;;;5122241;27;21048;-66
2022/05/04 03:26:44;;;;;;;7.63;3.43;;;8.30;99.90;;;;;;5121598;27;20420;-65
2022/05/04 03:29:10;;;;;;;6.17;3.53;;;8.30;99.90;;;;;;5128602;27;21241;-66
2022/05/04 03:31:37;;;;;;;7.03;3.37;;;8.30;99.90;;;;;;5104647;27;20539;-66
2022/05/04 03:34:03;;;;;;;7.60;4.00;;;8.40;99.90;;;;;;5122294;27;20523;-66
2022/05/04 03:36:29;;;;;;;5.30;3.17;;;8.40;99.90;;;;;;5122968;27;20440;-67
2022/05/04 03:38:54;;;;;;;10.70;4.37;;;8.40;99.90;;;;;;5127244;27;20456;-66
2022/05/04 03:41:23;;;;;;;7.90;4.43;;;8.40;99.90;;;;;;5115322;27;20198;-66
2022/05/04 03:43:49;;;;;;;5.40;3.23;;;8.40;99.90;;;;;;5127304;27;20221;-67
2022/05/04 03:46:19;;;;;;;6.30;3.20;;;8.40;99.90;;;;;;5125847;27;20670;-66
2022/05/04 03:48:47;;;;;;;6.03;3.10;;;8.40;99.90;;;;;;5126551;27;20582;-66
2022/05/04 03:51:14;;;;;;;5.10;3.30;;;8.40;99.90;;;;;;5123525;27;20444;-66
2022/05/04 03:53:40;;;;;;;8.20;2.80;;;8.40;99.90;;;;;;5118251;27;20420;-65
2022/05/04 03:56:07;;;;;;;5.00;3.10;;;8.30;99.90;;;;;;5121783;27;20444;-67
2022/05/04 03:58:34;;;;;;;6.87;2.90;;;8.30;99.90;;;;;;5123674;27;20428;-66
2022/05/04 04:00:59;;;;;;;6.40;3.40;;;8.30;99.90;;;;;;5120067;27;20429;-66
2022/05/04 04:03:25;;;;;;;5.67;3.13;;;8.20;99.90;;;;;;5121878;27;20447;-65
2022/05/04 04:05:51;;;;;;;7.47;4.33;;;8.20;99.90;;;;;;5112040;27;20184;-67
2022/05/04 04:08:17;;;;;;;5.50;3.20;;;8.20;99.90;;;;;;5121302;27;20218;-67
2022/05/04 04:10:42;;;;;;;6.27;3.57;;;8.30;99.90;;;;;;5118053;27;20198;-68
2022/05/04 04:13:08;;;;;;;5.60;3.47;;;8.30;99.90;;;;;;5121991;27;20286;-67
2022/05/04 04:15:34;;;;;;;5.13;2.80;;;8.30;99.90;;;;;;5116513;27;20630;-66
2022/05/04 04:17:59;;;;;;;4.93;2.97;;;8.30;99.90;;;;;;5121557;27;20197;-67
2022/05/04 04:23:10;;;;;;;7.27;3.73;;;8.40;99.90;;;;;;5111626;27;20197;-66
2022/05/04 04:25:36;;;;;;;8.53;3.90;;;8.40;99.90;;;;;;5114342;27;20445;-66
2022/05/04 04:28:02;;;;;;;6.67;3.57;;;8.50;99.90;;;;;;5124710;27;20259;-69
2022/05/04 04:30:27;;;;;;;5.40;3.90;;;8.50;99.90;;;;;;5125775;27;20513;-70
2022/05/04 04:32:53;;;;;;;8.80;4.40;;;8.50;99.90;;;;;;5116626;27;20428;-68
2022/05/04 04:35:18;;;;;;;8.50;4.53;;;8.60;99.90;;;;;;5121425;27;20287;-68
2022/05/04 04:37:44;;;;;;;6.77;3.93;;;8.60;99.90;;;;;;5123092;27;20191;-68
2022/05/04 04:40:10;;;;;;;8.50;4.47;;;8.70;99.90;;;;;;5126387;27;20192;-70
2022/05/04 04:42:35;;;;;;;8.20;4.30;;;8.70;99.90;;;;;;5119361;27;20562;-69
2022/05/04 04:45:01;;;;;;;9.47;4.77;;;8.80;99.90;;;;;;5125216;27;20279;-66
2022/05/04 04:47:29;;;;;;;10.40;3.57;;;8.80;99.90;;;;;;5123548;27;20681;-66
2022/05/04 04:49:57;;;;;;;7.37;3.47;;;8.90;99.90;;;;;;5118280;27;20183;-67
2022/05/04 04:52:23;;;;;;;7.23;3.40;;;9.00;99.90;;;;;;5120236;27;20464;-66
2022/05/04 04:54:50;;;;;;;7.60;3.80;;;9.00;99.90;;;;;;5122462;27;20856;-66
2022/05/04 04:57:15;;;;;;;10.77;4.03;;;9.00;99.90;;;;;;5120360;27;20485;-66
2022/05/04 04:59:42;;;;;;;6.07;3.43;;;9.00;99.90;;;;;;5121321;27;20868;-66
2022/05/04 05:02:08;;;;;;;7.27;4.03;;;9.00;99.90;;;;;;5119218;27;20180;-67
2022/05/04 05:04:34;;;;;;;13.00;3.93;;;9.10;99.90;;;;;;5117457;27;20477;-66
2022/05/04 05:06:59;;;;;;;6.20;3.13;;;9.10;99.90;;;;;;5090058;28;20422;-67
2022/05/04 05:09:25;;;;;;;7.70;3.73;;;9.10;99.90;;;;;;5117383;27;20187;-68
2022/05/04 05:11:50;;;;;;;7.17;3.80;;;9.10;99.90;;;;;;5112105;27;20179;-67
2022/05/04 05:17:00;;;;;;;8.60;4.10;;;9.10;99.90;;;;;;5119039;27;20190;-66
2022/05/04 05:19:26;;;;;;;7.27;3.87;;;9.20;99.90;;;;;;5126170;27;20425;-66
2022/05/04 05:21:51;;;;;;;7.80;3.57;;;9.20;99.90;;;;;;5123561;27;20195;-68
2022/05/04 05:24:17;;;;;;;4.90;3.27;;;9.20;99.90;;;;;;5125510;27;20225;-69
2022/05/04 05:26:43;;;;;;;8.47;3.33;;;9.30;99.90;;;;;;5122912;27;20198;-68
2022/05/04 05:29:08;;;;;;;4.80;3.63;;;9.30;99.90;;;;;;5125067;27;20211;-69
2022/05/04 05:31:34;;;;;;;12.47;4.90;;;9.30;99.90;;;;;;5121665;27;20187;-70
2022/05/04 05:34:00;;;;;;;4.83;3.00;;;9.30;99.90;;;;;;5093214;27;20214;-66
2022/05/04 05:36:25;;;;;;;5.77;3.50;;;9.40;99.90;;;;;;5115689;27;20218;-64
2022/05/04 05:38:51;;;;;;;13.13;3.30;;;9.40;99.90;;;;;;5123142;27;20908;-67
2022/05/04 05:41:17;;;;;;;6.87;3.80;;;9.50;99.90;;;;;;5116294;27;20709;-67
2022/05/04 05:43:43;;;;;;;8.23;3.80;;;9.60;99.90;;;;;;5122141;27;20217;-67
2022/05/04 05:46:08;;;;;;;6.77;3.67;;;9.70;99.90;;;;;;5118786;27;20315;-67
2022/05/04 05:48:34;;;;;;;11.10;4.77;;;9.80;99.90;;;;;;5115236;27;20970;-66
2022/05/04 05:51:06;;;;;;;11.60;5.83;;;9.80;99.90;;;;;;5115777;27;20195;-67
2022/05/04 05:53:31;;;;;;;12.80;5.80;;;9.90;99.90;;;;;;5120838;27;20251;-69
2022/05/04 05:55:58;;;;;;;11.50;4.00;;;10.00;99.90;;;;;;5115422;27;20430;-68
2022/05/04 05:58:24;;;;;;;6.23;3.13;;;10.10;99.90;;;;;;5120233;27;20225;-67
2022/05/04 06:00:50;;;;;;;7.07;3.90;;;10.10;99.90;;;;;;5108147;27;20430;-67
2022/05/04 06:03:17;;;;;;;5.40;2.93;;;10.20;99.90;;;;;;5109628;27;21251;-67
2022/05/04 06:05:43;;;;;;;9.50;5.60;;;10.20;99.90;;;;;;5110947;27;20433;-67
2022/05/04 06:08:09;;;;;;;6.23;3.20;;;10.20;99.90;;;;;;5123825;27;20452;-67
2022/05/04 06:10:38;;;;;;;6.50;3.47;;;10.20;99.90;;;;;;5122145;27;20959;-67
2022/05/04 06:13:05;;;;;;;3.47;2.40;;;10.20;99.90;;;;;;5123187;27;20413;-67
2022/05/04 06:15:30;;;;;;;6.57;3.80;;;10.20;99.90;;;;;;5123044;27;20487;-67
2022/05/04 06:17:56;;;;;;;10.87;3.40;;;10.20;99.90;;;;;;5123691;27;20939;-68
2022/05/04 06:20:23;;;;;;;7.87;3.50;;;10.20;99.90;;;;;;5123204;28;20217;-68
2022/05/04 06:22:49;;;;;;;6.20;3.27;;;10.30;99.90;;;;;;5123035;28;20183;-68
2022/05/04 06:25:15;;;;;;;5.80;3.07;;;10.40;99.90;;;;;;5121448;28;20815;-68
2022/05/04 06:27:40;;;;;;;9.60;3.53;;;10.40;99.90;;;;;;5080203;28;20232;-67
2022/05/04 06:35:35;;;;;;;5.20;3.27;;;10.60;99.90;;;;;;5116893;28;20423;-68
2022/05/04 06:38:01;;;;;;;6.33;3.83;;;10.70;99.90;;;;;;5117968;28;20501;-69
2022/05/04 06:40:26;;;;;;;5.93;3.50;;;10.60;99.90;;;;;;5122623;28;20191;-67
2022/05/04 06:42:52;;;;;;;5.47;2.90;;;10.60;99.90;;;;;;5116786;28;20180;-67
2022/05/04 06:45:18;;;;;;;11.07;3.63;;;10.60;99.90;;;;;;5121241;28;20229;-67
2022/05/04 06:47:44;;;;;;;5.70;2.97;;;10.60;99.90;;;;;;5086231;28;20846;-67
2022/05/04 06:50:10;;;;;;;13.47;3.37;;;10.60;99.90;;;;;;5121427;27;20266;-67
2022/05/04 06:52:37;;;;;;;6.70;2.93;;;10.70;99.90;;;;;;5117222;27;20199;-67
2022/05/04 06:55:03;;;;;;;6.13;3.17;;;10.60;99.90;;;;;;5118415;27;21165;-69
2022/05/04 06:57:29;;;;;;;5.13;2.67;;;10.70;99.90;;;;;;5118898;27;21164;-69
2022/05/04 06:59:57;;;;;;;6.30;2.83;;;10.70;99.90;;;;;;5122327;27;20424;-68
2022/05/04 07:02:23;;;;;;;4.27;2.23;;;10.80;99.90;;;;;;5087770;28;20180;-67
2022/05/04 07:04:49;;;;;;;3.80;2.03;;;10.80;99.90;;;;;;5120064;27;20436;-67
2022/05/04 07:07:15;;;;;;;4.93;2.30;;;10.80;99.90;;;;;;5127772;27;20500;-66
2022/05/04 07:09:40;;;;;;;5.93;3.40;;;10.90;99.90;;;;;;5128129;27;20187;-67
2022/05/04 07:12:07;;;;;;;5.60;3.00;;;10.90;99.90;;;;;;5119982;27;20175;-66
2022/05/04 07:14:32;;;;;;;4.70;2.63;;;10.90;99.90;;;;;;5127563;27;20202;-67
2022/05/04 07:16:58;;;;;;;5.93;3.43;;;11.00;99.90;;;;;;5124534;27;20420;-66
2022/05/04 07:19:24;;;;;;;7.83;3.43;;;11.00;99.90;;;;;;5127122;27;20179;-67
2022/05/04 07:21:50;;;;;;;5.53;2.73;;;11.10;99.90;;;;;;5123422;27;20222;-66
2022/05/04 07:24:15;;;;;;;4.20;2.97;;;11.10;99.90;;;;;;5126096;27;20443;-68
2022/05/04 07:26:41;;;;;;;6.20;3.30;;;11.10;99.90;;;;;;5122299;27;20266;-67
2022/05/04 07:29:07;;;;;;;7.20;3.67;;;11.20;99.90;;;;;;5125820;27;20233;-67
2022/05/04 07:31:33;;;;;;;5.23;3.10;;;11.20;99.90;;;;;;5121468;27;20610;-66
2022/05/04 07:33:59;;;;;;;10.63;3.30;;;11.20;99.90;;;;;;5124162;27;20934;-66
2022/05/04 07:36:24;;;;;;;5.00;2.70;;;11.30;99.90;;;;;;5112961;27;20188;-68
2022/05/04 07:38:50;;;;;;;6.40;3.37;;;11.30;99.90;;;;;;5121431;27;20201;-66
2022/05/04 07:44:00;;;;;;;4.80;3.37;;;11.40;99.90;;;;;;5114919;27;20255;-66
2022/05/04 07:46:27;;;;;;;7.03;3.60;;;11.40;99.90;;;;;;5117888;27;20433;-64
2022/05/04 07:48:54;;;;;;;6.33;3.73;;;11.50;99.90;;;;;;5122039;27;20206;-67
2022/05/04 07:51:19;;;;;;;4.77;2.97;;;11.60;99.90;;;;;;5116730;27;20460;-67
2022/05/04 07:53:45;;;;;;;3.27;2.30;;;11.70;99.90;;;;;;5120615;27;20448;-68
2022/05/04 07:56:11;;;;;;;6.13;2.93;;;11.80;99.90;;;;;;5122790;27;20175;-66
2022/05/04 07:58:36;;;;;;;4.57;2.87;;;12.00;99.90;;;;;;5126903;27;20197;-69
2022/05/04 08:06:30;;;;;;;4.53;2.40;;;12.30;99.90;;;;;;5115105;27;20413;-66
2022/05/04 08:08:56;;;;;;;6.07;2.80;;;12.60;99.90;;;;;;5123416;27;20456;-66
2022/05/04 08:11:22;;;;;;;5.47;2.83;;;12.80;99.90;;;;;;5120879;27;20247;-68
2022/05/04 08:13:47;;;;;;;7.83;2.47;;;12.90;99.90;;;;;;5121759;27;20207;-67
2022/05/04 08:16:13;;;;;;;6.80;3.17;;;13.00;99.90;;;;;;5125161;27;20206;-66
2022/05/04 08:18:40;;;;;;;4.67;2.67;;;13.30;99.90;;;;;;5121878;27;20184;-67
2022/05/04 08:21:07;;;;;;;7.40;3.20;;;13.40;99.90;;;;;;5119077;27;20188;-67
2022/05/04 08:23:32;;;;;;;5.23;2.93;;;13.50;99.90;;;;;;5119635;27;20553;-70
2022/05/04 08:25:58;;;;;;;2.80;1.93;;;13.70;99.90;;;;;;5124620;27;20433;-67
2022/05/04 08:28:24;;;;;;;5.50;2.90;;;13.80;99.90;;;;;;5105266;27;20199;-67
2022/05/04 08:30:49;;;;;;;11.70;2.60;;;14.10;99.90;;;;;;5109827;27;20172;-67
2022/05/04 08:33:15;;;;;;;4.20;2.00;;;14.40;99.90;;;;;;5113580;27;20671;-68
2022/05/04 08:35:41;;;;;;;3.90;2.70;;;14.40;99.90;;;;;;5121375;27;20197;-67
2022/05/04 08:38:07;;;;;;;5.63;2.63;;;14.70;99.90;;;;;;5108490;27;20210;-67
2022/05/04 08:40:33;;;;;;;8.80;3.17;;;15.30;99.90;;;;;;5118980;27;20183;-67
2022/05/04 08:43:05;;;;;;;4.80;2.37;;;15.60;99.90;;;;;;5114954;27;20264;-67
2022/05/04 08:45:33;;;;;;;9.47;3.20;;;15.50;99.90;;;;;;5120233;27;20492;-67
2022/05/04 08:48:00;;;;;;;4.17;2.13;;;15.50;99.90;;;;;;5119714;27;20460;-67
2022/05/04 08:50:26;;;;;;;4.90;2.80;;;15.30;99.90;;;;;;5126493;27;20785;-68
2022/05/04 08:52:55;;;;;;;5.77;3.10;;;15.30;99.90;;;;;;5112977;27;20417;-68
2022/05/04 08:55:22;;;;;;;6.27;2.43;;;15.40;99.90;;;;;;5119784;27;20820;-69
2022/05/04 08:57:48;;;;;;;6.97;2.33;;;15.60;99.90;;;;;;5113910;27;20420;-67
2022/05/04 09:00:15;;;;;;;6.00;2.70;;;15.50;99.90;;;;;;5127389;27;20421;-67
2022/05/04 09:02:41;;;;;;;6.97;3.30;;;15.70;99.90;;;;;;5119127;27;20452;-67
2022/05/04 09:05:18;;;;;;;4.07;2.17;;;16.00;99.90;;;;;;5117046;27;20472;-67
2022/05/04 09:07:46;;;;;;;4.87;2.37;;;16.40;99.90;;;;;;5124172;27;20518;-69
2022/05/04 09:10:21;;;;;;;3.47;2.27;;;16.60;99.90;;;;;;5121814;27;20462;-67
2022/05/04 09:12:48;;;;;;;4.33;2.40;;;17.00;99.90;;;;;;5111706;27;20412;-69
2022/05/04 09:15:26;;;;;;;7.47;2.97;;;16.90;99.90;;;;;;5120707;27;20465;-67
2022/05/04 09:18:03;;;;;;;6.00;2.67;;;17.20;99.90;;;;;;5123023;27;20416;-67
2022/05/04 09:20:57;;;;;;;5.50;2.60;;;17.20;99.80;;;;;;5097330;27;20420;-68
2022/05/04 09:23:33;;;;;;;3.20;1.90;;;17.60;98.50;;;;;;5110366;27;20441;-66
2022/05/04 09:26:02;;;;;;;2.20;1.17;;;18.00;97.50;;;;;;5122441;27;20413;-69
2022/05/04 09:28:29;;;;;;;2.80;1.70;;;18.00;97.00;;;;;;5116840;27;20472;-68
2022/05/04 09:30:56;;;;;;;4.73;1.97;;;18.10;95.60;;;;;;5122075;27;20429;-68
2022/05/04 09:33:27;;;;;;;3.17;1.70;;;18.30;94.30;;;;;;5114496;27;20440;-68
2022/05/04 09:35:57;;;;;;;16.70;2.30;;;18.30;94.20;;;;;;5120775;27;20419;-68
2022/05/04 09:46:45;;;;;;;7.10;2.20;;;19.60;94.00;;;;;;5115486;27;20787;-69
2022/05/04 09:49:12;;;;;;;3.50;1.80;;;19.60;94.40;;;;;;5119239;27;20981;-68
2022/05/04 09:51:40;;;;;;;5.97;2.30;;;19.50;94.50;;;;;;5114671;27;20539;-68
2022/05/04 09:54:32;;;;;;;5.77;2.73;;;19.70;93.70;;;;;;5118002;27;20439;-68
2022/05/04 09:57:00;;;;;;;4.80;1.73;;;19.70;93.20;;;;;;5121541;27;20439;-69
2022/05/04 09:59:30;;;;;;;4.53;1.93;;;19.80;93.10;;;;;;5126240;27;20500;-68
2022/05/04 10:01:59;;;;;;;3.00;1.73;;;20.10;92.00;;;;;;5117531;27;20428;-68
2022/05/04 10:04:25;;;;;;;3.87;2.10;;;19.80;92.70;;;;;;5114232;27;20437;-69
2022/05/04 10:06:52;;;;;;;4.77;2.40;;;19.80;93.10;;;;;;5119731;27;20507;-67
2022/05/04 10:09:19;;;;;;;5.77;2.33;;;19.50;92.90;;;;;;5087040;28;20460;-67
2022/05/04 10:11:46;;;;;;;4.00;2.20;;;19.40;93.10;;;;;;5109433;27;21012;-67
2022/05/04 10:14:15;;;;;;;5.33;3.00;;;19.20;92.60;;;;;;5119829;27;20468;-67
2022/05/04 10:16:45;;;;;;;5.30;2.10;;;19.00;92.70;;;;;;5118546;27;20500;-66
2022/05/04 10:19:25;;;;;;;4.67;2.70;;;18.80;92.60;;;;;;5120566;27;20829;-67
2022/05/04 10:21:55;;;;;;;4.73;3.00;;;18.50;92.60;;;;;;5114840;27;20417;-67
2022/05/04 10:24:22;;;;;;;9.53;2.80;;;18.50;92.80;;;;;;5119600;28;20435;-66
2022/05/04 10:26:48;;;;;;;4.83;2.40;;;18.50;92.50;;;;;;5113743;28;20504;-67
2022/05/04 10:32:32;;;;;;;6.03;2.33;;;17.70;92.80;;;;;;5114447;28;20340;-68
2022/05/04 10:35:11;;;;;;;5.20;2.40;;;17.50;93.40;;;;;;5112943;28;20445;-67
2022/05/04 10:37:57;;;;;;;4.10;2.23;;;17.40;92.80;;;;;;5106460;28;20416;-67
2022/05/04 10:40:59;;;;;;;5.50;3.10;;;17.50;92.70;;;;;;5116845;28;20420;-68
2022/05/04 10:43:34;;;;;;;3.03;2.03;;;17.90;94.20;;;;;;5010335;28;20528;-68
2022/05/04 10:46:06;;;;;;;13.47;2.50;;;18.20;94.30;;;;;;5097480;28;20432;-67
2022/05/04 10:48:31;;;;;;;14.03;3.73;;;18.20;94.60;;;;;;5113242;28;20448;-68
2022/05/04 10:51:02;;;;;;;5.63;3.00;;;18.20;95.10;;;;;;5122911;28;20445;-68
2022/05/04 10:53:28;;;;;;;3.43;2.47;;;18.10;95.00;;;;;;5121777;28;20550;-68
2022/05/04 10:56:03;;;;;;;3.57;2.07;;;18.40;94.20;;;;;;5120170;28;20423;-67
2022/05/04 10:58:46;;;;;;;4.30;2.60;;;18.20;93.60;;;;;;5121015;28;20175;-67
2022/05/04 11:01:20;;;;;;;5.10;2.27;;;18.30;94.30;;;;;;5110400;28;20440;-68
2022/05/04 11:03:49;;;;;;;5.73;2.60;;;18.30;93.50;;;;;;5118053;28;20966;-68
2022/05/04 11:06:34;;;;;;;5.23;3.07;;;18.20;95.00;;;;;;5115427;28;21361;-67
2022/05/04 11:09:10;;;;;;;9.23;2.90;;;18.20;93.30;;;;;;5116742;28;20469;-69
2022/05/04 11:11:40;;;;;;;10.27;2.87;;;18.00;92.80;;;;;;5113041;28;20443;-67
2022/05/04 11:14:07;;;;;;;7.23;2.80;;;18.00;92.90;;;;;;5117452;28;20434;-65
2022/05/04 11:16:33;;;;;;;3.63;2.43;;;18.00;92.30;;;;;;5119496;28;20416;-69
2022/05/04 11:19:00;;;;;;;5.50;2.93;;;18.20;91.80;;;;;;5117369;28;21502;-69
2022/05/04 11:21:27;;;;;;;4.03;2.33;;;18.20;91.50;;;;;;5118350;28;20416;-68
2022/05/04 11:23:58;;;;;;;4.33;2.13;;;18.20;92.10;;;;;;5115811;28;20524;-68
2022/05/04 11:26:33;;;;;;;4.47;2.03;;;17.90;91.50;;;;;;5090967;28;20481;-68
2022/05/04 11:28:59;;;;;;;8.43;2.77;;;18.10;91.60;;;;;;5116223;28;20459;-68
2022/05/04 11:31:25;;;;;;;3.00;1.70;;;18.40;92.30;;;;;;5125709;28;20420;-65
2022/05/04 11:33:51;;;;;;;7.10;2.83;;;18.80;90.10;;;;;;5123876;28;20199;-68
2022/05/04 11:36:19;;;;;;;8.30;2.40;;;19.00;90.10;;;;;;5123224;27;21248;-68
2022/05/04 11:38:45;;;;;;;5.20;2.37;;;19.00;90.50;;;;;;5127856;27;20257;-68
2022/05/04 11:41:13;;;;;;;4.80;2.10;;;18.60;91.20;;;;;;5123246;27;20421;-68
2022/05/04 11:43:38;;;;;;;7.73;2.87;;;18.70;90.00;;;;;;5127149;27;20430;-68
2022/05/04 11:46:09;;;;;;;3.90;2.10;;;18.90;90.10;;;;;;5127783;27;20421;-68
2022/05/04 11:48:46;;;;;;;14.83;2.43;;;18.90;91.00;;;;;;5123255;27;20226;-68
2022/05/04 11:51:14;;;;;;;3.97;1.50;;;19.20;89.30;;;;;;5117911;27;20443;-66
2022/05/04 11:53:40;;;;;;;2.50;1.50;;;19.00;89.30;;;;;;5123506;27;20417;-68
2022/05/04 11:56:07;;;;;;;4.40;2.13;;;19.10;89.80;;;;;;5123549;27;20417;-68
2022/05/04 11:58:34;;;;;;;7.90;2.20;;;19.00;87.50;;;;;;5092907;27;20240;-68
2022/05/04 12:01:04;;;;;;;3.07;1.73;;;18.80;88.20;;;;;;5122129;27;20444;-69
2022/05/04 12:03:33;;;;;;;4.67;2.30;;;18.40;89.00;;;;;;5121571;27;20482;-68
2022/05/04 12:06:01;;;;;;;2.60;1.33;;;18.60;89.20;;;;;;5113946;27;20424;-68
2022/05/04 12:08:28;;;;;;;3.60;1.60;;;18.50;88.40;;;;;;5120805;27;20491;-68
2022/05/04 12:10:54;;;;;;;5.40;2.57;;;18.60;86.70;;;;;;5115998;27;20440;-68
2022/05/04 12:13:24;;;;;;;4.03;1.50;;;18.50;86.80;;;;;;5116302;27;20444;-68
2022/05/04 12:15:54;;;;;;;5.03;1.47;;;18.40;88.40;;;;;;5107517;27;20438;-67
2022/05/04 12:18:20;;;;;;;3.10;1.63;;;18.90;88.50;;;;;;5108622;27;20451;-68
2022/05/04 12:20:49;;;;;;;3.03;1.60;;;19.10;87.30;;;;;;5122605;27;20507;-69
2022/05/04 12:23:15;;;;;;;2.03;1.30;;;19.60;83.40;;;;;;5124610;27;20869;-67
2022/05/04 12:25:42;;;;;;;2.40;1.47;;;19.40;85.00;;;;;;5126771;27;20527;-67
2022/05/04 12:28:09;;;;;;;2.50;1.50;;;19.30;85.00;;;;;;5125327;27;20208;-67
2022/05/04 12:33:34;;;;;;;3.30;1.57;;;18.40;86.80;;;;;;5120708;27;20408;-68
2022/05/04 12:36:04;;;;;;;4.23;2.07;;;18.00;91.60;;;;;;5119989;27;20496;-67
2022/05/04 12:38:31;;;;;;;3.93;1.63;;;17.50;93.80;;;;;;5108317;27;20418;-68
2022/05/04 12:40:56;;;;;;;4.33;2.23;;;17.10;95.20;;;;;;5113311;27;20985;-69
2022/05/04 12:43:24;;;;;;;4.73;1.77;;;16.80;95.70;;;;;;5120732;27;20503;-68
2022/05/04 12:45:53;;;;;;;3.40;2.07;;;16.50;96.10;;;;;;5119175;27;20186;-67
2022/05/04 12:48:23;;;;;;;4.23;1.83;;;16.30;96.70;;;;;;5122561;27;20553;-69
2022/05/04 12:50:51;;;;;;;4.93;2.40;;;16.00;96.80;;;;;;5119480;27;20459;-67
2022/05/04 12:53:16;;;;;;;2.97;1.90;;;15.90;97.50;;;;;;5104528;27;20425;-68
2022/05/04 12:58:27;;;;;;;2.87;1.70;;;15.70;96.90;;;;;;5116299;27;20667;-67
2022/05/04 13:00:52;;;;;;;6.07;1.97;;;15.40;97.60;;;;;;5116208;27;20429;-67
2022/05/04 13:03:18;;;;;;;5.67;2.07;;;15.20;98.10;;;;;;5118157;27;20685;-68
2022/05/04 13:05:43;;;;;;;3.63;1.70;;;15.00;99.90;;;;;;5114624;27;20207;-68
2022/05/04 13:08:09;;;;;;;6.27;2.30;;;14.80;99.90;;;;;;5120504;27;20738;-67
2022/05/04 13:10:36;;;;;;;8.77;2.40;;;14.60;99.90;;;;;;5113270;27;20191;-67
2022/05/04 13:13:02;;;;;;;5.47;2.20;;;14.30;99.90;;;;;;5114746;27;20557;-69
2022/05/04 13:15:28;;;;;;;4.10;2.00;;;14.00;99.90;;;;;;5125612;27;20490;-68
2022/05/04 13:17:54;;;;;;;5.60;2.47;;;13.70;99.90;;;;;;5124912;27;20508;-66
2022/05/04 13:20:20;;;;;;;8.67;2.87;;;13.50;99.90;;;;;;5117555;27;20694;-67
2022/05/04 13:22:46;;;;;;;11.30;2.20;;;13.50;99.90;;;;;;5124008;27;20623;-68
2022/05/04 13:25:12;;;;;;;4.33;2.40;;;13.60;99.90;;;;;;5122446;27;21006;-67
2022/05/04 13:27:38;;;;;;;3.67;1.90;;;13.60;99.90;;;;;;5123070;27;22371;-65
2022/05/04 13:30:05;;;;;;;9.77;2.60;;;13.70;99.90;;;;;;5116328;27;20182;-67
2022/05/04 13:32:31;;;;;;;5.77;2.60;;;13.80;99.90;;;;;;5117352;27;20413;-67
2022/05/04 13:34:56;;;;;;;11.57;3.07;;;14.10;99.90;;;;;;5118550;27;20447;-69